Aeropuerto Internacional de la Ciudad de México, México

8:49 PM CDT en Julio 26, 2016 (GMT -0500)
Lic Benito Juarez International | | Change Station

Alt 7343 ft 19.43 °N, 99.10 °W | Updated 1 hour ago

Overcast
Nublado
68 ° F
Sensación térmica 68 ° F
N
7
Viento Variable Viento desde NNE

Hoy
Alta -- | Baja -- ° F
--% Posibilidad de precipitaciones
Ayer
Alta -- | Baja -- ° F
Precip. -- pul
Presión 30.23 pul
Visibilidad 7.0 Millas
Nubes Nubes dispersas 2000 ft
Muy nublado 8000 ft
Nublado 22000 ft
Punto de rocío 52 ° F
Humedad 56%
Precipitaciones 0.00 pul
Espesor de la nieve No disponible.
7:10 AM 8:14 PM
Gibosa menguante, 49% visible
METAR MMMX 270044Z 02006KT 7SM SCT020CB BKN080 OVC220 20/11 A3023 NOSIG RMK 60015 8/963 HZY TSE28 -RAE40
Presión 30.23 pul
Visibilidad 7.0 Millas
Nubes Nubes dispersas 2000 ft
Muy nublado 8000 ft
Nublado 22000 ft
Punto de rocío 52 ° F
Humedad 56%
Precipitaciones 0.00 pul
Espesor de la nieve No disponible.
7:10 AM 8:14 PM
Gibosa menguante, 49% visible
METAR MMMX 270044Z 02006KT 7SM SCT020CB BKN080 OVC220 20/11 A3023 NOSIG RMK 60015 8/963 HZY TSE28 -RAE40

10-Day Weather Forecast

No radar image for this location.
×

Almanac

Astronomía

Jul. 26, 2016 Salida Puesta
Hora real
Crepúsculo civil
Crepúsculo náutico
Crepúsculo astronómico
Luna
Horas de luz
Horas de luz
Tomorrow will be .
, % of the Moon is Illuminated

Extremos de hoy

Máximos del país Bajas del país

Community

WunderPhotos

Upload Photos

1,927,772 ¡fotos cargadas!

WunderBlog® & News

Nearby

Calidad del aire

  Calidad del aire Índice AQ Contaminante
Not available.

Grosos de nieve

Estación Profundido Altura

Actividad de terremotos

Ciudad Distance Mag. Tiempo y dato
Magnitud mínima muestra es 2,5.

Temperaturas de aguas costeras

Lugar Temperatura

Stations

Estaciones meteorológicas cercanas

Ubicación de la estación Temp. Vientos helados Punto de rocío Humedad Viento Precip. Alt Actualizado Tipo